Time;durP1;ratioP1;P1;durP2;ratioP2;P2;SDS_P1;SDS_P2;PMS_P1;PMS_P2;Temp;Humidity;BMP_temperature;BMP_pressure;BME280_temperature;BME280_humidity;BME280_pressure;Samples;Min_cycle;Max_cycle;Signal;HPM_P1;HPM_P2
2022/07/29 00:02:07;;;;;;;3.30;1.60;;;15.80;99.90;;;;;;5070433;28;20244;-76
2022/07/29 00:04:35;;;;;;;4.22;2.63;;;15.80;99.90;;;;;;5074048;28;20303;-76
2022/07/29 00:07:02;;;;;;;5.22;1.92;;;15.90;99.90;;;;;;5074640;28;20253;-77
2022/07/29 00:09:39;;;;;;;3.20;1.90;;;15.80;99.90;;;;;;5070433;28;20194;-77
2022/07/29 00:12:08;;;;;;;1.90;1.73;;;15.80;99.90;;;;;;5064703;28;20258;-76
2022/07/29 00:14:35;;;;;;;3.03;2.40;;;15.80;99.90;;;;;;5060409;28;20211;-74
2022/07/29 00:17:02;;;;;;;2.20;1.95;;;15.80;99.90;;;;;;5074617;28;20747;-76
2022/07/29 00:19:29;;;;;;;6.18;2.30;;;15.70;99.90;;;;;;5067628;28;20231;-77
2022/07/29 00:21:56;;;;;;;4.50;1.90;;;15.70;99.90;;;;;;5069076;28;20200;-78
2022/07/29 00:24:23;;;;;;;4.22;1.90;;;15.70;99.90;;;;;;5073266;28;20305;-77
2022/07/29 00:26:50;;;;;;;5.22;2.10;;;15.70;99.90;;;;;;5065778;28;20234;-76
2022/07/29 00:29:19;;;;;;;2.40;1.75;;;15.60;99.90;;;;;;5067183;28;20199;-75
2022/07/29 00:31:45;;;;;;;3.78;1.83;;;15.60;99.90;;;;;;5068340;28;20286;-77
2022/07/29 00:36:53;;;;;;;5.35;1.50;;;15.50;99.90;;;;;;5072357;28;20222;-77
2022/07/29 00:39:21;;;;;;;3.97;1.60;;;15.50;99.90;;;;;;5072536;28;20282;-77
2022/07/29 00:41:48;;;;;;;3.85;1.70;;;15.40;99.90;;;;;;5072535;28;20641;-77
2022/07/29 00:44:17;;;;;;;4.95;2.47;;;15.40;99.90;;;;;;5073113;28;20218;-78
2022/07/29 00:46:44;;;;;;;5.15;2.45;;;15.30;99.90;;;;;;5067944;28;20233;-77
2022/07/29 00:49:11;;;;;;;4.18;2.30;;;15.40;99.90;;;;;;5069662;28;20295;-76
2022/07/29 00:51:38;;;;;;;3.85;1.95;;;15.30;99.90;;;;;;5071751;28;20314;-76
2022/07/29 00:54:06;;;;;;;6.72;1.88;;;15.40;99.90;;;;;;5073217;28;20317;-77
2022/07/29 00:56:34;;;;;;;2.88;1.60;;;15.40;99.90;;;;;;5060251;28;20215;-78
2022/07/29 00:59:01;;;;;;;2.42;1.60;;;15.40;99.90;;;;;;5070632;28;20203;-76
2022/07/29 01:01:30;;;;;;;3.17;1.65;;;15.30;99.90;;;;;;5065686;28;20203;-76
2022/07/29 01:03:57;;;;;;;2.88;1.95;;;15.30;99.90;;;;;;5073728;28;20317;-77
2022/07/29 01:06:25;;;;;;;3.17;1.60;;;15.30;99.90;;;;;;5075407;28;20683;-77
2022/07/29 01:08:53;;;;;;;2.33;2.08;;;15.30;99.90;;;;;;5073894;28;20202;-77
2022/07/29 01:11:21;;;;;;;3.72;2.25;;;15.30;99.90;;;;;;5066282;28;20255;-75
2022/07/29 01:13:49;;;;;;;5.18;2.15;;;15.30;99.90;;;;;;5070873;28;20253;-76
2022/07/29 01:16:22;;;;;;;3.92;1.73;;;15.20;99.90;;;;;;5072902;28;20637;-76
2022/07/29 01:18:58;;;;;;;4.00;2.80;;;15.20;99.90;;;;;;5071034;28;20664;-76
2022/07/29 01:21:48;;;;;;;3.10;1.70;;;15.30;99.90;;;;;;5054260;28;20558;-77
2022/07/29 01:24:40;;;;;;;3.55;2.30;;;15.30;99.90;;;;;;5045377;28;20226;-76
2022/07/29 01:27:27;;;;;;;4.13;2.22;;;15.30;99.90;;;;;;5056563;28;20214;-76
2022/07/29 01:29:59;;;;;;;3.22;2.40;;;15.30;99.90;;;;;;5067583;28;20206;-76
2022/07/29 01:32:28;;;;;;;2.28;1.45;;;15.30;99.90;;;;;;5072495;28;20258;-76
2022/07/29 01:34:59;;;;;;;2.88;1.85;;;15.30;99.90;;;;;;5070681;28;20223;-78
2022/07/29 01:37:32;;;;;;;3.10;2.00;;;15.20;99.90;;;;;;5072122;28;20277;-76
2022/07/29 01:40:02;;;;;;;2.47;1.67;;;15.20;99.90;;;;;;5076829;28;20219;-76
2022/07/29 01:42:36;;;;;;;8.13;2.28;;;15.20;99.90;;;;;;5083206;28;20198;-76
2022/07/29 01:45:11;;;;;;;2.67;2.05;;;15.20;99.90;;;;;;5069228;28;20206;-77
2022/07/29 01:47:42;;;;;;;4.25;2.00;;;15.30;99.90;;;;;;5069018;28;20191;-77
2022/07/29 01:50:13;;;;;;;2.95;1.70;;;15.30;99.90;;;;;;5073761;28;20210;-77
2022/07/29 01:52:47;;;;;;;3.67;1.65;;;15.30;99.90;;;;;;5073541;28;20305;-76
2022/07/29 01:55:16;;;;;;;2.88;1.60;;;15.20;99.90;;;;;;5076191;28;20205;-76
2022/07/29 01:57:46;;;;;;;4.22;1.80;;;15.20;99.90;;;;;;5075682;28;20636;-77
2022/07/29 02:00:16;;;;;;;2.67;2.00;;;15.20;99.90;;;;;;5072332;28;20645;-76
2022/07/29 02:02:47;;;;;;;3.60;1.38;;;15.20;99.90;;;;;;5076372;28;20210;-76
2022/07/29 02:05:18;;;;;;;2.88;1.73;;;15.20;99.90;;;;;;5074689;28;20209;-76
2022/07/29 02:07:49;;;;;;;2.10;1.80;;;15.20;99.90;;;;;;5075951;28;20668;-76
2022/07/29 02:10:19;;;;;;;3.53;2.00;;;15.20;99.90;;;;;;5071872;28;20210;-76
2022/07/29 02:12:49;;;;;;;4.50;1.92;;;15.20;99.90;;;;;;5076130;28;20323;-76
2022/07/29 02:15:19;;;;;;;4.50;1.73;;;15.20;99.90;;;;;;5072666;28;20208;-76
2022/07/29 02:17:52;;;;;;;4.68;1.90;;;15.20;99.90;;;;;;5076847;28;20207;-76
2022/07/29 02:20:20;;;;;;;2.95;1.75;;;15.20;99.90;;;;;;5056052;28;20203;-76
2022/07/29 02:22:49;;;;;;;6.20;1.88;;;15.20;99.90;;;;;;5076311;28;20199;-76
2022/07/29 02:25:17;;;;;;;2.65;1.67;;;15.20;99.90;;;;;;5072117;28;20650;-76
2022/07/29 02:27:46;;;;;;;8.65;2.50;;;15.20;99.90;;;;;;5071685;28;20207;-77
2022/07/29 02:30:14;;;;;;;4.85;2.42;;;15.30;99.90;;;;;;5067669;28;20290;-78
2022/07/29 02:32:47;;;;;;;1.92;1.60;;;15.20;99.90;;;;;;5068963;28;20206;-77
2022/07/29 02:35:16;;;;;;;2.80;1.33;;;15.20;99.90;;;;;;5071425;28;20260;-75
2022/07/29 02:38:49;;;;;;;4.03;1.80;;;15.20;99.90;;;;;;5076330;28;20238;-76
2022/07/29 02:40:34;;;;;;;3.00;1.60;;;15.20;99.90;;;;;;5070670;28;20658;-76
2022/07/29 02:43:02;;;;;;;2.78;2.25;;;15.20;99.90;;;;;;5071225;28;20306;-77
2022/07/29 02:45:31;;;;;;;2.30;1.73;;;15.20;99.90;;;;;;5073995;28;20217;-77
2022/07/29 02:48:04;;;;;;;4.30;2.05;;;15.30;99.90;;;;;;5065079;28;20286;-77
2022/07/29 02:50:37;;;;;;;4.00;1.80;;;15.30;99.90;;;;;;5073371;28;20205;-76
2022/07/29 02:53:14;;;;;;;2.92;1.63;;;15.30;99.90;;;;;;5052619;28;20231;-77
2022/07/29 02:55:45;;;;;;;4.13;1.70;;;15.30;99.90;;;;;;5067622;28;20286;-77
2022/07/29 02:58:18;;;;;;;6.10;2.00;;;15.30;99.90;;;;;;5071398;28;20199;-77
2022/07/29 03:00:48;;;;;;;2.78;1.85;;;15.30;99.90;;;;;;5076284;28;20286;-77
2022/07/29 03:03:19;;;;;;;3.53;2.15;;;15.40;99.90;;;;;;5075514;28;20322;-75
2022/07/29 03:05:46;;;;;;;3.22;1.65;;;15.40;99.90;;;;;;5075866;28;20286;-76
2022/07/29 03:08:15;;;;;;;3.42;1.40;;;15.40;99.90;;;;;;5071533;28;20199;-77
2022/07/29 03:10:46;;;;;;;2.65;1.88;;;15.40;99.90;;;;;;5075463;28;20195;-76
2022/07/29 03:13:15;;;;;;;2.15;1.83;;;15.50;99.90;;;;;;5067655;28;20222;-75
2022/07/29 03:15:44;;;;;;;2.80;1.75;;;15.40;99.90;;;;;;5072715;28;20219;-77
2022/07/29 03:18:16;;;;;;;12.57;2.25;;;15.40;99.90;;;;;;5071199;28;20237;-76
2022/07/29 03:20:43;;;;;;;3.15;2.10;;;15.40;99.90;;;;;;5066010;28;20203;-79
2022/07/29 03:23:11;;;;;;;4.18;1.80;;;15.40;99.90;;;;;;5076306;28;20230;-77
2022/07/29 03:25:38;;;;;;;4.18;2.00;;;15.40;99.90;;;;;;5077795;28;20282;-77
2022/07/29 03:28:05;;;;;;;3.75;1.70;;;15.30;99.90;;;;;;5076431;28;20286;-77
2022/07/29 03:30:32;;;;;;;3.40;1.40;;;15.30;99.90;;;;;;5072627;28;20317;-76
2022/07/29 03:32:59;;;;;;;2.60;1.85;;;15.30;99.90;;;;;;5074027;28;20630;-76
2022/07/29 03:35:27;;;;;;;2.38;1.77;;;15.30;99.90;;;;;;5073583;28;20203;-76
2022/07/29 03:37:55;;;;;;;5.95;2.58;;;15.30;99.90;;;;;;5074881;28;20668;-78
2022/07/29 03:40:28;;;;;;;3.75;1.85;;;15.40;99.90;;;;;;5072710;28;20207;-75
2022/07/29 03:42:56;;;;;;;3.55;2.00;;;15.40;99.90;;;;;;5069074;28;20306;-76
2022/07/29 03:45:25;;;;;;;2.72;1.83;;;15.40;99.90;;;;;;5079521;28;20249;-77
2022/07/29 03:48:02;;;;;;;4.97;2.10;;;15.30;99.90;;;;;;5089155;28;20617;-76
2022/07/29 03:50:31;;;;;;;2.47;1.75;;;15.40;99.90;;;;;;5082761;28;20205;-75
2022/07/29 03:52:59;;;;;;;8.68;1.88;;;15.40;99.90;;;;;;5063962;28;20235;-76
2022/07/29 03:55:29;;;;;;;4.32;1.88;;;15.40;99.90;;;;;;5074493;28;20203;-77
2022/07/29 03:57:57;;;;;;;6.90;2.75;;;15.40;99.90;;;;;;5073705;28;20202;-77
2022/07/29 04:00:27;;;;;;;2.78;1.95;;;15.40;99.90;;;;;;5076214;28;20207;-76
2022/07/29 04:02:54;;;;;;;3.92;2.08;;;15.40;99.90;;;;;;5077358;28;20273;-76
2022/07/29 04:05:21;;;;;;;2.95;1.67;;;15.40;99.90;;;;;;5072725;28;20234;-76
2022/07/29 04:07:49;;;;;;;7.45;2.90;;;15.40;99.90;;;;;;5073822;28;20292;-76
2022/07/29 04:10:18;;;;;;;4.90;2.35;;;15.50;99.90;;;;;;5067461;28;20195;-76
2022/07/29 04:12:45;;;;;;;3.20;1.70;;;15.50;99.90;;;;;;5063705;28;20639;-76
2022/07/29 04:15:12;;;;;;;2.85;1.85;;;15.60;99.90;;;;;;5072495;28;20672;-76
2022/07/29 04:17:39;;;;;;;4.53;2.03;;;15.60;99.90;;;;;;5073581;28;20204;-77
2022/07/29 04:20:07;;;;;;;3.92;1.95;;;15.60;99.90;;;;;;5073038;28;20202;-76
2022/07/29 04:22:34;;;;;;;2.05;1.83;;;15.60;99.90;;;;;;5073336;28;20546;-77
2022/07/29 04:25:02;;;;;;;3.28;2.20;;;15.60;99.90;;;;;;5074398;28;20207;-77
2022/07/29 04:27:29;;;;;;;6.88;2.67;;;15.60;99.90;;;;;;5074076;28;20537;-76
2022/07/29 04:29:56;;;;;;;4.43;2.72;;;15.60;99.90;;;;;;5073169;28;20293;-77
2022/07/29 04:32:23;;;;;;;3.30;2.17;;;15.60;99.90;;;;;;5071963;28;20222;-76
2022/07/29 04:34:50;;;;;;;4.05;2.20;;;15.70;99.90;;;;;;5074142;28;20600;-77
2022/07/29 04:37:17;;;;;;;3.97;2.53;;;15.60;99.90;;;;;;5072280;28;20686;-77
2022/07/29 04:39:44;;;;;;;3.30;1.83;;;15.70;99.90;;;;;;5073051;28;20201;-77
2022/07/29 04:42:12;;;;;;;3.47;2.17;;;15.70;99.90;;;;;;5076910;28;20222;-77
2022/07/29 04:44:39;;;;;;;3.60;2.33;;;15.80;99.90;;;;;;5073637;28;20273;-77
2022/07/29 04:47:09;;;;;;;5.65;2.75;;;15.80;99.90;;;;;;5075301;28;20203;-77
2022/07/29 04:49:39;;;;;;;5.30;1.80;;;15.80;99.90;;;;;;5064460;28;20202;-77
2022/07/29 04:52:06;;;;;;;4.07;2.42;;;15.80;99.90;;;;;;5072641;28;20199;-75
2022/07/29 04:54:33;;;;;;;3.15;2.33;;;15.90;99.90;;;;;;5072895;28;20237;-76
2022/07/29 04:57:00;;;;;;;4.10;2.00;;;15.90;99.90;;;;;;5073307;28;20206;-76
2022/07/29 04:59:29;;;;;;;4.28;2.10;;;16.00;99.90;;;;;;5072194;28;20238;-78
2022/07/29 05:01:55;;;;;;;4.25;2.17;;;15.90;99.90;;;;;;5072767;28;20233;-77
2022/07/29 05:04:22;;;;;;;3.05;1.85;;;16.00;99.90;;;;;;5071660;28;20233;-77
2022/07/29 05:06:50;;;;;;;4.65;2.38;;;16.00;99.90;;;;;;5071905;28;20197;-76
2022/07/29 05:09:17;;;;;;;6.50;3.22;;;16.00;99.90;;;;;;5071886;28;20198;-77
2022/07/29 05:11:44;;;;;;;3.22;2.03;;;16.00;99.90;;;;;;5069303;28;20214;-75
2022/07/29 05:14:10;;;;;;;4.30;2.38;;;16.20;99.90;;;;;;5069870;28;20607;-77
2022/07/29 05:16:40;;;;;;;6.47;2.97;;;16.20;99.90;;;;;;5069484;28;20287;-75
2022/07/29 05:19:07;;;;;;;5.93;2.95;;;16.30;99.90;;;;;;5069215;28;20560;-76
2022/07/29 05:21:34;;;;;;;2.35;1.80;;;16.40;99.90;;;;;;5068447;28;20225;-75
2022/07/29 05:24:00;;;;;;;5.88;3.10;;;16.40;99.90;;;;;;5075907;28;20247;-77
2022/07/29 05:26:28;;;;;;;4.93;2.55;;;16.60;99.90;;;;;;5072628;28;20207;-78
2022/07/29 05:28:55;;;;;;;3.28;2.28;;;16.70;99.90;;;;;;5072254;28;20216;-77
2022/07/29 05:31:21;;;;;;;5.72;2.47;;;16.90;99.90;;;;;;5072010;28;20291;-76
2022/07/29 05:33:50;;;;;;;3.45;2.80;;;16.90;99.90;;;;;;5072179;28;20234;-76
2022/07/29 05:36:17;;;;;;;7.03;2.83;;;17.00;99.90;;;;;;5073403;28;20288;-77
2022/07/29 05:38:44;;;;;;;4.18;2.50;;;17.10;99.90;;;;;;5072914;28;20284;-76
2022/07/29 05:41:12;;;;;;;3.80;2.30;;;17.10;99.90;;;;;;5072149;28;20263;-77
2022/07/29 05:43:38;;;;;;;10.07;2.90;;;17.10;99.90;;;;;;5072163;28;20886;-76
2022/07/29 05:46:05;;;;;;;5.70;2.60;;;17.10;99.90;;;;;;5072814;28;20711;-77
2022/07/29 05:48:32;;;;;;;4.70;3.13;;;17.20;99.90;;;;;;5073005;28;20448;-75
2022/07/29 05:51:01;;;;;;;4.30;2.40;;;17.30;99.90;;;;;;5083997;28;20500;-75
2022/07/29 05:53:28;;;;;;;6.47;3.00;;;17.30;99.90;;;;;;5084954;28;20276;-77
2022/07/29 05:55:55;;;;;;;2.77;2.27;;;17.30;99.90;;;;;;5071034;28;20444;-75
2022/07/29 05:58:22;;;;;;;5.25;2.67;;;17.40;99.90;;;;;;5081179;28;20451;-76
2022/07/29 06:00:49;;;;;;;5.27;2.43;;;17.30;99.90;;;;;;5075033;28;20217;-77
2022/07/29 06:03:16;;;;;;;6.57;3.38;;;17.30;99.90;;;;;;5072001;28;20597;-77
2022/07/29 06:05:42;;;;;;;4.73;3.80;;;17.30;99.90;;;;;;5073389;28;20292;-77
2022/07/29 06:08:11;;;;;;;4.07;3.23;;;17.40;99.90;;;;;;5071401;28;20485;-77
2022/07/29 06:10:38;;;;;;;5.03;2.88;;;17.40;99.90;;;;;;5072732;28;21008;-77
2022/07/29 06:13:06;;;;;;;4.22;2.95;;;17.60;99.90;;;;;;5071666;28;20267;-78
2022/07/29 06:15:33;;;;;;;4.72;2.90;;;17.50;99.90;;;;;;5072225;28;20297;-77
2022/07/29 06:18:00;;;;;;;6.10;2.43;;;17.70;99.90;;;;;;5072715;28;20280;-76
2022/07/29 06:20:29;;;;;;;3.10;2.40;;;17.70;99.90;;;;;;5070379;28;20531;-77
2022/07/29 06:22:56;;;;;;;4.55;3.20;;;17.70;99.90;;;;;;5073111;28;20496;-76
2022/07/29 06:25:26;;;;;;;6.57;2.40;;;17.70;99.90;;;;;;5077859;28;20265;-79
2022/07/29 06:27:53;;;;;;;6.37;2.00;;;17.70;99.90;;;;;;5074455;28;20837;-76
2022/07/29 06:30:20;;;;;;;9.43;2.93;;;17.70;99.90;;;;;;5071836;28;20460;-76
2022/07/29 06:32:47;;;;;;;4.40;2.70;;;17.70;99.90;;;;;;5066840;28;20600;-76
2022/07/29 06:35:14;;;;;;;7.35;2.42;;;17.80;99.90;;;;;;5075634;28;20444;-75
2022/07/29 06:37:41;;;;;;;8.30;2.67;;;17.80;99.90;;;;;;5076009;28;20286;-76
2022/07/29 06:42:55;;;;;;;4.17;3.03;;;18.00;99.90;;;;;;5072990;28;20557;-75
2022/07/29 06:45:24;;;;;;;2.97;2.50;;;18.10;99.90;;;;;;5078183;28;20445;-77
2022/07/29 06:47:51;;;;;;;6.63;2.87;;;18.30;99.60;;;;;;5076702;28;20841;-78
2022/07/29 06:50:18;;;;;;;6.33;2.90;;;18.40;99.30;;;;;;5075952;28;20448;-77
2022/07/29 06:52:45;;;;;;;3.97;2.50;;;18.70;99.20;;;;;;5072327;28;20479;-76
2022/07/29 06:55:12;;;;;;;6.33;2.90;;;19.00;98.30;;;;;;5077630;28;20448;-78
2022/07/29 06:57:39;;;;;;;7.97;2.60;;;19.20;97.70;;;;;;5068909;28;20459;-76
2022/07/29 07:00:08;;;;;;;3.97;3.03;;;19.60;97.60;;;;;;5076426;28;20510;-77
2022/07/29 07:02:35;;;;;;;6.77;3.07;;;20.10;96.00;;;;;;5077686;28;20943;-76
2022/07/29 07:05:03;;;;;;;6.97;2.87;;;20.40;95.40;;;;;;5082521;28;20477;-75
2022/07/29 07:07:30;;;;;;;4.50;2.80;;;21.00;94.60;;;;;;5082321;28;20459;-77
2022/07/29 07:09:57;;;;;;;4.73;2.20;;;21.20;93.70;;;;;;5081760;28;20772;-76
2022/07/29 07:12:25;;;;;;;5.07;2.27;;;21.20;93.30;;;;;;5124654;22;20482;-80
2022/07/29 07:14:51;;;;;;;5.67;2.40;;;21.20;93.10;;;;;;5041569;28;20576;-81
2022/07/29 07:17:20;;;;;;;6.47;2.60;;;21.60;93.30;;;;;;5053485;28;20490;-81
2022/07/29 07:19:47;;;;;;;6.73;3.00;;;22.40;92.50;;;;;;5050912;28;20455;-79
2022/07/29 07:22:14;;;;;;;5.27;2.60;;;23.50;91.00;;;;;;5063044;28;20499;-81
2022/07/29 07:24:40;;;;;;;5.73;2.60;;;24.90;88.20;;;;;;5051817;28;20642;-81
2022/07/29 07:27:07;;;;;;;4.77;2.97;;;25.80;83.90;;;;;;5052255;28;20507;-81
2022/07/29 07:29:34;;;;;;;4.57;2.63;;;27.00;81.50;;;;;;5053906;28;20474;-80
2022/07/29 07:32:01;;;;;;;4.60;2.53;;;28.10;76.20;;;;;;5065939;28;20540;-80
2022/07/29 07:34:30;;;;;;;6.30;3.00;;;28.90;73.20;;;;;;5047251;28;20495;-80
2022/07/29 07:36:57;;;;;;;6.70;2.83;;;29.10;71.40;;;;;;5050190;28;20450;-79
2022/07/29 07:39:26;;;;;;;3.17;2.10;;;29.20;69.80;;;;;;5059164;28;20442;-79
2022/07/29 07:41:54;;;;;;;5.83;2.57;;;29.00;70.30;;;;;;5053967;28;20439;-81
2022/07/29 07:44:21;;;;;;;6.90;2.70;;;29.70;69.00;;;;;;5052675;28;20474;-80
2022/07/29 07:46:48;;;;;;;5.27;3.20;;;29.90;67.40;;;;;;5051040;28;20450;-80
2022/07/29 07:49:14;;;;;;;3.53;2.50;;;30.20;66.20;;;;;;5056895;28;20478;-81
2022/07/29 07:51:43;;;;;;;3.63;2.43;;;30.30;65.80;;;;;;5053802;28;20523;-80
2022/07/29 07:54:10;;;;;;;3.70;2.37;;;30.70;64.30;;;;;;5053193;28;20509;-80
2022/07/29 07:56:40;;;;;;;8.50;3.90;;;31.40;63.40;;;;;;5053109;28;20459;-81
2022/07/29 07:59:06;;;;;;;5.80;2.57;;;32.50;61.80;;;;;;5055549;28;20450;-81
2022/07/29 08:01:34;;;;;;;3.13;2.13;;;33.10;59.30;;;;;;5043706;28;20491;-81
2022/07/29 08:04:00;;;;;;;3.97;2.40;;;32.90;57.70;;;;;;5046944;28;20467;-81
2022/07/29 08:06:27;;;;;;;5.50;2.40;;;33.00;57.20;;;;;;5055655;28;20450;-81
2022/07/29 08:08:56;;;;;;;5.57;2.47;;;33.50;57.10;;;;;;5054127;28;20838;-81
2022/07/29 08:11:23;;;;;;;3.80;3.07;;;34.10;55.50;;;;;;5043293;28;20448;-80
2022/07/29 08:13:49;;;;;;;11.40;2.53;;;33.50;55.70;;;;;;5062869;28;20868;-83
2022/07/29 08:16:17;;;;;;;3.93;2.37;;;33.10;55.60;;;;;;5061258;28;20447;-83
2022/07/29 08:18:46;;;;;;;7.23;2.40;;;33.70;55.10;;;;;;5055088;28;20444;-81
2022/07/29 08:21:12;;;;;;;6.07;2.60;;;32.60;55.20;;;;;;5058029;28;20500;-79
2022/07/29 08:23:45;;;;;;;6.17;2.00;;;32.60;56.20;;;;;;5053307;28;20463;-79
2022/07/29 08:26:14;;;;;;;4.30;2.00;;;33.20;55.80;;;;;;5060485;28;20453;-80
2022/07/29 08:28:45;;;;;;;3.10;2.10;;;33.50;54.50;;;;;;5054096;28;20447;-80
2022/07/29 08:31:12;;;;;;;4.77;2.00;;;33.60;54.50;;;;;;5055437;28;20449;-81
2022/07/29 08:33:40;;;;;;;6.67;2.93;;;34.30;53.30;;;;;;5055809;28;20506;-80
2022/07/29 08:36:07;;;;;;;5.30;3.10;;;34.30;52.70;;;;;;5054059;28;20443;-81
2022/07/29 08:38:35;;;;;;;6.40;2.33;;;33.20;53.60;;;;;;5055282;28;20467;-82
2022/07/29 08:41:02;;;;;;;3.90;2.63;;;32.40;55.30;;;;;;5065133;28;20479;-81
2022/07/29 08:43:30;;;;;;;3.73;2.20;;;31.80;56.70;;;;;;5056457;28;20443;-81
2022/07/29 08:45:57;;;;;;;7.40;2.87;;;31.70;56.60;;;;;;5048770;28;20447;-81
2022/07/29 08:48:24;;;;;;;4.40;2.43;;;32.00;56.50;;;;;;5060930;28;20453;-82
2022/07/29 08:50:56;;;;;;;4.87;2.40;;;31.70;56.10;;;;;;5056831;28;20471;-80
2022/07/29 08:53:26;;;;;;;5.00;2.37;;;31.50;57.00;;;;;;5053681;28;20458;-82
2022/07/29 08:55:54;;;;;;;3.87;2.00;;;31.90;56.60;;;;;;5058171;28;20526;-81
2022/07/29 08:58:22;;;;;;;6.97;3.10;;;31.90;56.80;;;;;;5050160;28;20459;-81
2022/07/29 09:00:53;;;;;;;3.97;2.20;;;32.40;56.60;;;;;;5052847;28;20470;-80
2022/07/29 09:03:21;;;;;;;5.50;2.60;;;33.30;54.80;;;;;;5054356;28;20463;-82
2022/07/29 09:05:49;;;;;;;3.97;1.70;;;33.90;53.30;;;;;;5056449;28;20431;-82
2022/07/29 09:08:16;;;;;;;3.77;2.17;;;34.60;52.70;;;;;;5057065;28;20431;-81
2022/07/29 09:10:43;;;;;;;3.97;2.30;;;35.10;51.50;;;;;;5057520;28;20447;-82
2022/07/29 09:13:11;;;;;;;6.03;2.10;;;35.40;51.00;;;;;;5063865;28;20462;-81
2022/07/29 09:15:38;;;;;;;3.90;2.20;;;36.20;49.20;;;;;;5054077;28;20442;-81
2022/07/29 09:18:06;;;;;;;5.53;2.57;;;36.20;48.20;;;;;;5053277;28;20435;-80
2022/07/29 09:23:14;;;;;;;3.90;2.23;;;35.70;48.10;;;;;;5050558;28;20504;-81
2022/07/29 09:25:41;;;;;;;4.43;1.90;;;34.80;48.70;;;;;;5052382;28;20439;-79
2022/07/29 09:28:09;;;;;;;5.87;2.50;;;34.00;50.00;;;;;;5054457;28;20485;-80
2022/07/29 09:30:36;;;;;;;3.60;1.90;;;32.40;51.70;;;;;;5052813;28;20439;-82
2022/07/29 09:33:06;;;;;;;3.93;1.70;;;31.40;53.70;;;;;;5052990;28;20471;-81
2022/07/29 09:35:35;;;;;;;4.47;2.40;;;31.00;54.80;;;;;;5040050;28;20475;-81
2022/07/29 09:38:12;;;;;;;7.00;2.40;;;31.20;55.20;;;;;;5052977;28;20431;-80
2022/07/29 09:40:39;;;;;;;6.03;2.70;;;31.20;55.20;;;;;;5057401;28;20474;-79
2022/07/29 09:43:11;;;;;;;4.60;2.40;;;31.30;54.90;;;;;;5054542;28;20439;-82
2022/07/29 09:45:39;;;;;;;3.97;2.27;;;31.00;55.40;;;;;;5049122;28;20447;-81
2022/07/29 09:48:17;;;;;;;7.07;2.40;;;30.60;55.80;;;;;;5052331;28;20468;-80
2022/07/29 09:50:46;;;;;;;4.93;2.50;;;30.10;56.40;;;;;;5053384;28;20449;-81
2022/07/29 09:53:32;;;;;;;2.70;2.00;;;30.00;57.10;;;;;;5067163;28;20498;-83
2022/07/29 09:55:59;;;;;;;5.00;2.37;;;30.10;57.30;;;;;;5051087;28;20457;-81
2022/07/29 09:58:26;;;;;;;5.33;2.13;;;30.20;56.60;;;;;;5054055;28;20473;-80
2022/07/29 10:00:54;;;;;;;5.70;2.27;;;30.00;56.60;;;;;;5049639;28;20466;-82
2022/07/29 10:03:23;;;;;;;4.90;2.13;;;29.50;57.00;;;;;;5059554;28;20487;-81
2022/07/29 10:06:06;;;;;;;4.33;2.50;;;28.80;58.20;;;;;;5057276;28;20434;-81
2022/07/29 10:08:33;;;;;;;4.37;2.30;;;28.80;58.90;;;;;;5050202;28;20447;-81
2022/07/29 10:11:11;;;;;;;4.50;2.47;;;28.60;59.00;;;;;;5054861;28;20447;-80
2022/07/29 10:13:39;;;;;;;7.30;2.30;;;28.70;58.90;;;;;;5047349;28;20505;-80
2022/07/29 10:16:08;;;;;;;4.20;1.87;;;28.70;59.80;;;;;;5055216;28;20481;-81
2022/07/29 10:18:38;;;;;;;7.10;2.13;;;28.50;59.10;;;;;;5054938;28;20439;-80
2022/07/29 10:21:05;;;;;;;3.10;2.00;;;28.40;59.90;;;;;;5055391;28;20542;-81
2022/07/29 10:23:32;;;;;;;6.60;2.97;;;28.40;59.80;;;;;;5051859;28;20469;-81
2022/07/29 10:26:00;;;;;;;5.60;1.93;;;28.20;60.20;;;;;;5056853;28;20466;-82
2022/07/29 10:28:27;;;;;;;2.53;2.00;;;28.10;59.80;;;;;;5054912;28;20518;-82
2022/07/29 10:31:02;;;;;;;3.60;2.00;;;28.00;60.30;;;;;;5060916;28;20453;-80
2022/07/29 10:33:47;;;;;;;2.70;2.03;;;27.50;60.60;;;;;;5055875;28;20466;-80
2022/07/29 10:36:25;;;;;;;7.50;2.53;;;27.40;61.80;;;;;;5054449;28;20471;-81
2022/07/29 10:39:01;;;;;;;3.93;1.93;;;27.30;62.10;;;;;;5053770;28;20501;-81
2022/07/29 10:41:46;;;;;;;4.90;1.93;;;27.40;61.60;;;;;;5059681;28;20445;-80
2022/07/29 10:44:17;;;;;;;5.90;2.43;;;27.50;61.20;;;;;;5055425;28;20474;-80
2022/07/29 10:46:44;;;;;;;2.83;1.80;;;27.80;61.90;;;;;;5054789;28;20481;-81
2022/07/29 10:49:15;;;;;;;5.10;2.40;;;27.90;61.10;;;;;;5058441;28;20430;-80
2022/07/29 10:52:03;;;;;;;3.63;1.80;;;28.20;60.10;;;;;;5064106;28;20536;-81
2022/07/29 10:54:49;;;;;;;3.17;1.63;;;28.30;59.50;;;;;;5058549;28;20558;-80
2022/07/29 10:57:29;;;;;;;4.37;2.40;;;28.40;59.80;;;;;;5059077;28;20435;-80
2022/07/29 11:00:29;;;;;;;9.33;2.70;;;28.60;59.50;;;;;;5055496;28;20469;-81
2022/07/29 11:02:57;;;;;;;5.43;2.57;;;29.10;58.40;;;;;;5057001;28;20450;-81
2022/07/29 11:05:31;;;;;;;3.20;1.70;;;29.30;57.70;;;;;;5053743;28;20447;-81
2022/07/29 11:08:25;;;;;;;6.27;2.77;;;29.50;57.60;;;;;;5054953;28;20467;-80
2022/07/29 11:10:54;;;;;;;7.23;1.83;;;29.70;56.90;;;;;;5051642;28;20447;-82
2022/07/29 11:13:46;;;;;;;6.57;2.93;;;29.80;56.10;;;;;;5054095;28;20502;-82
2022/07/29 11:16:13;;;;;;;3.30;1.93;;;30.20;55.60;;;;;;5053670;28;20493;-80
2022/07/29 11:19:14;;;;;;;3.00;2.40;;;29.90;55.70;;;;;;5048055;28;20491;-82
2022/07/29 11:21:46;;;;;;;2.77;1.63;;;30.10;56.10;;;;;;5044595;28;20560;-80
2022/07/29 11:24:14;;;;;;;4.13;2.07;;;30.10;55.90;;;;;;5051268;28;20455;-81
2022/07/29 11:26:42;;;;;;;4.70;2.33;;;30.30;55.90;;;;;;5058988;28;20466;-82
2022/07/29 11:29:20;;;;;;;4.83;2.10;;;30.30;55.60;;;;;;5058739;28;20443;-83
2022/07/29 11:31:51;;;;;;;3.30;2.03;;;29.80;55.60;;;;;;5058883;28;20450;-83
2022/07/29 11:34:24;;;;;;;3.40;1.77;;;29.30;56.60;;;;;;5054652;28;20492;-82
2022/07/29 11:37:18;;;;;;;6.80;2.27;;;29.00;57.20;;;;;;5051193;28;20510;-81
2022/07/29 11:39:47;;;;;;;3.53;1.70;;;29.10;56.90;;;;;;5046668;28;20448;-81
2022/07/29 11:42:42;;;;;;;2.50;1.93;;;29.10;56.60;;;;;;5050508;28;20474;-80
2022/07/29 11:45:13;;;;;;;3.37;2.03;;;28.90;57.00;;;;;;5052324;28;20466;-80
2022/07/29 11:47:41;;;;;;;4.63;2.13;;;28.80;56.10;;;;;;5054937;28;20443;-81
2022/07/29 11:50:10;;;;;;;4.20;1.70;;;28.60;55.40;;;;;;5054942;28;20435;-80
2022/07/29 11:52:44;;;;;;;3.63;1.60;;;28.30;56.10;;;;;;5051569;28;20418;-83
2022/07/29 11:55:13;;;;;;;3.20;2.20;;;28.40;57.10;;;;;;5053259;28;20489;-81
2022/07/29 11:57:48;;;;;;;6.43;2.00;;;28.70;57.40;;;;;;5048485;28;20473;-81
2022/07/29 12:00:24;;;;;;;3.80;2.10;;;28.70;57.30;;;;;;5054029;28;20442;-82
2022/07/29 12:02:51;;;;;;;3.70;2.00;;;28.80;57.50;;;;;;5050706;28;20434;-81
2022/07/29 12:05:18;;;;;;;3.33;1.90;;;28.80;57.10;;;;;;5053714;28;20485;-82
2022/07/29 12:07:47;;;;;;;3.50;1.60;;;28.90;58.00;;;;;;5052812;28;20439;-82
2022/07/29 12:10:15;;;;;;;6.63;2.20;;;28.90;57.20;;;;;;5048790;28;20444;-81
2022/07/29 12:12:42;;;;;;;5.93;2.17;;;28.80;57.30;;;;;;5052814;28;20478;-81
2022/07/29 12:15:14;;;;;;;4.90;1.80;;;28.40;56.70;;;;;;5043830;28;20486;-81
2022/07/29 12:17:41;;;;;;;4.93;2.10;;;28.30;57.20;;;;;;5054819;28;20454;-83
2022/07/29 12:20:08;;;;;;;5.93;1.73;;;28.40;56.60;;;;;;5056191;28;20455;-82
2022/07/29 12:22:38;;;;;;;4.30;2.00;;;28.30;56.30;;;;;;5059432;28;20450;-82
2022/07/29 12:25:09;;;;;;;3.83;2.03;;;28.30;56.20;;;;;;5052466;28;20478;-82
2022/07/29 12:27:38;;;;;;;3.20;1.83;;;28.30;56.20;;;;;;5042061;28;20470;-81
2022/07/29 12:30:08;;;;;;;2.20;1.87;;;28.40;56.30;;;;;;5052541;28;20455;-83
2022/07/29 12:32:36;;;;;;;2.60;2.10;;;28.60;55.50;;;;;;5051111;28;20466;-79
2022/07/29 12:35:05;;;;;;;4.03;2.33;;;28.50;55.70;;;;;;5052624;28;20506;-82
2022/07/29 12:37:33;;;;;;;5.90;2.27;;;28.50;56.00;;;;;;5049800;28;20454;-81
2022/07/29 12:40:00;;;;;;;5.97;1.60;;;28.50;55.90;;;;;;5053711;28;20454;-81
2022/07/29 12:42:29;;;;;;;2.93;1.93;;;28.60;56.10;;;;;;5050774;28;20454;-82
2022/07/29 12:44:56;;;;;;;4.93;3.10;;;28.60;56.70;;;;;;5051920;28;20503;-82
2022/07/29 12:47:23;;;;;;;4.53;2.00;;;28.80;56.70;;;;;;5051346;28;20470;-81
2022/07/29 12:50:09;;;;;;;3.80;2.00;;;28.70;56.40;;;;;;5051743;28;20458;-81
2022/07/29 12:52:36;;;;;;;3.80;2.20;;;28.60;56.00;;;;;;5054321;28;20436;-82
2022/07/29 12:55:04;;;;;;;4.60;1.70;;;28.50;56.10;;;;;;5049722;28;20869;-80
2022/07/29 12:57:32;;;;;;;4.67;2.00;;;28.30;56.60;;;;;;5053034;28;20510;-81
2022/07/29 13:00:07;;;;;;;3.13;1.80;;;28.40;56.20;;;;;;5058697;28;20438;-81
2022/07/29 13:02:34;;;;;;;3.50;1.33;;;28.30;56.50;;;;;;5057300;28;20457;-82
2022/07/29 13:05:02;;;;;;;4.00;1.87;;;28.20;56.30;;;;;;5058592;28;20459;-81
2022/07/29 13:07:31;;;;;;;8.10;2.27;;;28.20;56.30;;;;;;5059123;28;20431;-82